createdAt,value
2018-08-31T00:00:25.949Z,68.00
2018-08-31T00:02:55.265Z,68.00
2018-08-31T00:05:45.663Z,67.70
2018-08-31T00:10:31.088Z,67.80
2018-08-31T00:13:01.227Z,67.70
2018-08-31T00:15:30.451Z,68.10
2018-08-31T00:18:01.471Z,68.40
2018-08-31T00:20:30.639Z,68.10
2018-08-31T00:23:01.771Z,68.40
2018-08-31T00:26:13.712Z,68.10
2018-08-31T00:29:12.467Z,68.00
2018-08-31T00:36:02.211Z,68.30
2018-08-31T00:39:18.955Z,68.10
2018-08-31T00:44:03.574Z,68.20
2018-08-31T00:46:34.060Z,68.50
2018-08-31T00:49:03.304Z,68.70
2018-08-31T00:51:33.384Z,68.70
2018-08-31T00:54:02.748Z,69.30
2018-08-31T00:56:32.239Z,69.50
2018-08-31T00:59:01.178Z,71.60
2018-08-31T01:01:30.185Z,70.70
2018-08-31T01:03:59.717Z,70.60
2018-08-31T01:06:29.219Z,70.90
2018-08-31T01:08:58.307Z,72.30
2018-08-31T01:11:30.103Z,73.60
2018-08-31T01:13:59.184Z,73.90
2018-08-31T01:16:28.335Z,74.80
2018-08-31T01:18:57.999Z,74.10
2018-08-31T01:21:27.417Z,73.10
2018-08-31T01:23:56.615Z,72.40
2018-08-31T01:26:25.547Z,72.40
2018-08-31T01:28:55.272Z,71.60
2018-08-31T01:31:24.360Z,70.90
2018-08-31T01:33:53.168Z,71.00
2018-08-31T01:36:22.186Z,71.30
2018-08-31T01:38:51.396Z,70.60
2018-08-31T01:41:21.990Z,70.80
2018-08-31T01:43:51.695Z,70.50
2018-08-31T01:46:20.867Z,70.60
2018-08-31T01:48:50.007Z,70.50
2018-08-31T01:51:20.864Z,72.80
2018-08-31T01:53:50.079Z,74.50
2018-08-31T01:56:19.903Z,73.10
2018-08-31T01:58:48.965Z,72.50
2018-08-31T02:01:17.883Z,73.30
2018-08-31T02:03:47.355Z,75.00
2018-08-31T02:06:16.541Z,77.20
2018-08-31T02:08:51.492Z,75.70
2018-08-31T02:11:20.437Z,74.10
2018-08-31T02:13:49.521Z,73.30
2018-08-31T02:16:18.549Z,72.70
2018-08-31T02:18:48.725Z,72.70
2018-08-31T02:21:18.759Z,71.90
2018-08-31T02:23:50.608Z,71.40
2018-08-31T02:26:22.464Z,71.40
2018-08-31T02:28:52.119Z,71.30
2018-08-31T02:31:22.333Z,71.50
2018-08-31T02:33:53.382Z,71.10
2018-08-31T02:36:23.239Z,71.20
2018-08-31T02:38:57.979Z,71.50
2018-08-31T02:41:27.717Z,71.40
2018-08-31T02:44:06.039Z,71.10
2018-08-31T02:46:36.106Z,71.30
2018-08-31T02:49:07.936Z,71.00
2018-08-31T02:51:42.330Z,71.30
2018-08-31T02:54:12.765Z,70.90
2018-08-31T02:56:44.341Z,70.80
2018-08-31T02:59:15.256Z,70.80
2018-08-31T03:01:46.311Z,71.10
2018-08-31T03:04:20.013Z,70.90
2018-08-31T03:06:51.857Z,70.90
2018-08-31T03:09:23.120Z,70.70
2018-08-31T03:11:55.020Z,70.90
2018-08-31T03:14:28.068Z,70.70
2018-08-31T03:17:03.355Z,70.90
2018-08-31T03:19:33.619Z,70.90
2018-08-31T03:22:02.954Z,70.80
2018-08-31T03:24:33.826Z,70.70
2018-08-31T03:27:04.755Z,70.70
2018-08-31T03:29:36.491Z,70.80
2018-08-31T03:32:06.345Z,71.30
2018-08-31T03:34:36.957Z,71.30
2018-08-31T03:37:06.399Z,71.20
2018-08-31T03:39:37.217Z,71.20
2018-08-31T03:42:09.043Z,71.00
2018-08-31T03:44:40.173Z,71.10
2018-08-31T03:47:12.484Z,70.90
2018-08-31T03:49:42.424Z,71.20
2018-08-31T03:52:14.772Z,71.40
2018-08-31T03:54:47.281Z,70.90
2018-08-31T03:57:18.345Z,71.60
2018-08-31T03:59:52.339Z,71.40
2018-08-31T04:02:23.255Z,73.10
2018-08-31T04:04:54.012Z,72.80
2018-08-31T04:07:23.923Z,72.70
2018-08-31T04:09:54.262Z,72.30
2018-08-31T04:12:24.235Z,72.20
2018-08-31T04:14:55.525Z,72.00
2018-08-31T04:17:26.811Z,71.70
2018-08-31T04:19:57.111Z,71.80
2018-08-31T04:22:28.675Z,71.70
2018-08-31T04:24:59.203Z,71.80
2018-08-31T04:33:41.196Z,71.90
2018-08-31T04:48:55.471Z,71.70
2018-08-31T04:51:26.340Z,72.60
2018-08-31T04:53:55.498Z,72.80
2018-08-31T04:56:25.686Z,73.00
2018-08-31T04:58:54.935Z,72.90
2018-08-31T05:01:24.336Z,73.10
2018-08-31T05:03:53.190Z,72.70
2018-08-31T05:06:22.610Z,72.60
2018-08-31T05:08:52.867Z,72.80
2018-08-31T05:11:22.715Z,72.80
2018-08-31T05:13:51.420Z,72.70
2018-08-31T05:16:20.005Z,72.80
2018-08-31T05:18:49.013Z,72.60
2018-08-31T05:21:17.638Z,73.10
2018-08-31T05:23:46.394Z,72.50
2018-08-31T05:26:15.265Z,72.60
2018-08-31T05:28:44.590Z,72.20
2018-08-31T05:31:14.068Z,72.30
2018-08-31T05:33:43.045Z,72.30
2018-08-31T05:36:11.780Z,72.30
2018-08-31T05:38:41.083Z,72.50
2018-08-31T05:41:10.445Z,72.60
2018-08-31T05:43:39.769Z,72.60
2018-08-31T05:46:08.179Z,72.60
2018-08-31T05:48:37.550Z,73.30
2018-08-31T05:51:06.280Z,75.80
2018-08-31T05:53:34.855Z,76.50
2018-08-31T05:56:04.162Z,74.70
2018-08-31T05:58:32.576Z,74.70
2018-08-31T06:01:01.030Z,74.70
2018-08-31T06:03:29.521Z,74.50
2018-08-31T06:05:58.209Z,75.60
2018-08-31T06:08:26.588Z,76.30
2018-08-31T06:10:56.790Z,75.70
2018-08-31T06:13:25.603Z,76.30
2018-08-31T06:15:54.254Z,77.80
2018-08-31T06:18:23.280Z,78.60
2018-08-31T06:20:55.865Z,78.80
2018-08-31T06:23:25.027Z,79.00
2018-08-31T06:25:54.577Z,78.30
2018-08-31T06:28:24.734Z,77.00
2018-08-31T06:30:53.924Z,77.20
2018-08-31T06:33:22.928Z,77.60
2018-08-31T06:35:51.270Z,78.10
2018-08-31T06:38:20.739Z,77.10
2018-08-31T06:40:49.370Z,76.00
2018-08-31T06:43:19.212Z,75.80
2018-08-31T06:45:48.130Z,75.40
2018-08-31T06:48:16.598Z,74.00
2018-08-31T06:50:46.394Z,73.80
2018-08-31T06:53:14.873Z,73.80
2018-08-31T06:55:44.240Z,73.00
2018-08-31T06:58:12.622Z,73.10
2018-08-31T07:00:42.095Z,73.90
2018-08-31T07:03:11.933Z,73.30
2018-08-31T07:05:41.748Z,71.30
2018-08-31T07:08:11.468Z,70.50
2018-08-31T07:10:40.113Z,69.60
2018-08-31T07:13:10.443Z,69.60
2018-08-31T07:15:39.428Z,70.10
2018-08-31T07:18:08.425Z,67.60
2018-08-31T07:20:37.385Z,69.00
2018-08-31T07:23:06.321Z,66.10
2018-08-31T07:25:35.063Z,67.00
2018-08-31T07:28:03.724Z,67.00
2018-08-31T07:30:32.246Z,67.30
2018-08-31T07:33:00.926Z,67.60
2018-08-31T07:35:29.595Z,65.00
2018-08-31T07:37:58.510Z,66.30
2018-08-31T07:40:27.390Z,68.00
2018-08-31T07:42:56.249Z,64.70
2018-08-31T07:45:25.130Z,66.50
2018-08-31T07:47:56.284Z,66.80
2018-08-31T07:50:26.265Z,67.00
2018-08-31T07:52:56.304Z,66.00
2018-08-31T07:55:26.279Z,65.50
2018-08-31T07:57:55.647Z,67.80
2018-08-31T08:00:24.444Z,67.70
2018-08-31T08:02:53.158Z,66.30
2018-08-31T08:05:21.890Z,67.20
2018-08-31T08:07:50.963Z,68.00
2018-08-31T08:10:19.846Z,66.80
2018-08-31T08:12:48.679Z,67.40
2018-08-31T08:15:17.407Z,66.90
2018-08-31T08:17:46.357Z,68.20
2018-08-31T08:20:15.680Z,68.40
2018-08-31T08:22:44.406Z,67.60
2018-08-31T08:25:13.118Z,67.00
2018-08-31T08:27:41.894Z,68.60
2018-08-31T08:30:10.850Z,68.20
2018-08-31T08:32:40.001Z,67.00
2018-08-31T08:35:09.259Z,65.80
2018-08-31T08:37:39.213Z,65.60
2018-08-31T08:40:09.030Z,66.60
2018-08-31T08:42:38.254Z,64.20
2018-08-31T08:45:07.462Z,62.90
2018-08-31T08:47:37.146Z,65.50
2018-08-31T08:50:06.400Z,65.50
2018-08-31T08:52:36.315Z,66.60
2018-08-31T08:55:06.048Z,67.00
2018-08-31T08:57:34.816Z,66.90
2018-08-31T09:00:03.762Z,66.50
2018-08-31T09:02:32.508Z,67.20
2018-08-31T09:05:01.372Z,67.80
2018-08-31T09:07:30.096Z,67.50
2018-08-31T09:10:04.132Z,69.30
2018-08-31T09:12:33.912Z,70.00
2018-08-31T09:15:02.545Z,71.10
2018-08-31T09:17:31.795Z,70.70
2018-08-31T09:20:01.001Z,71.00
2018-08-31T09:22:31.265Z,70.10
2018-08-31T09:25:01.789Z,70.80
2018-08-31T09:27:32.319Z,71.00
2018-08-31T09:30:02.092Z,69.40
2018-08-31T09:32:40.968Z,72.30
2018-08-31T09:35:11.698Z,72.90
2018-08-31T09:37:42.262Z,72.20
2018-08-31T09:40:10.983Z,72.60
2018-08-31T09:42:39.649Z,72.50
2018-08-31T09:45:08.891Z,71.30
2018-08-31T09:47:38.657Z,71.10
2018-08-31T09:50:08.950Z,71.00
2018-08-31T09:52:39.077Z,71.70
2018-08-31T09:55:08.333Z,70.80
2018-08-31T09:57:38.277Z,69.80
2018-08-31T10:00:07.574Z,70.30
2018-08-31T10:02:39.640Z,69.00
2018-08-31T10:05:09.145Z,69.50
2018-08-31T10:07:40.712Z,69.30
2018-08-31T10:10:12.716Z,68.10
2018-08-31T10:12:42.455Z,67.90
2018-08-31T10:15:12.059Z,69.00
2018-08-31T10:17:44.942Z,69.20
2018-08-31T10:20:16.227Z,68.00
2018-08-31T10:27:56.501Z,69.70
2018-08-31T10:30:26.404Z,68.80
2018-08-31T10:33:04.644Z,67.90
2018-08-31T10:35:34.634Z,68.00
2018-08-31T10:38:04.203Z,67.90
2018-08-31T10:40:33.784Z,66.50
2018-08-31T10:45:38.184Z,67.40
2018-08-31T10:50:43.364Z,65.80
2018-08-31T10:53:15.342Z,67.20
2018-08-31T10:55:44.054Z,63.70
2018-08-31T10:58:12.767Z,63.30
2018-08-31T11:00:41.834Z,67.40
2018-08-31T11:03:11.311Z,66.20
2018-08-31T11:05:39.987Z,65.40
2018-08-31T11:08:09.787Z,63.30
2018-08-31T11:10:38.636Z,64.90
2018-08-31T11:13:07.529Z,65.20
2018-08-31T12:54:09.692Z,65.40
2018-08-31T13:00:02.631Z,64.10
2018-08-31T13:19:10.483Z,60.90
2018-08-31T13:21:40.401Z,62.50
2018-08-31T13:24:09.991Z,63.10
2018-08-31T13:26:38.960Z,62.20
2018-08-31T13:29:08.180Z,59.40
2018-08-31T13:31:38.294Z,60.00
2018-08-31T13:34:10.139Z,58.90
2018-08-31T13:36:39.092Z,59.40
2018-08-31T13:39:10.168Z,58.90
2018-08-31T13:41:39.532Z,59.30
2018-08-31T13:44:19.137Z,60.00
2018-08-31T13:46:53.753Z,60.40
2018-08-31T13:49:23.348Z,60.90
2018-08-31T13:51:55.327Z,60.70
2018-08-31T13:54:45.934Z,59.30
2018-08-31T13:57:24.534Z,58.20
2018-08-31T14:00:09.715Z,59.30
2018-08-31T14:23:05.121Z,56.80
2018-08-31T14:25:51.409Z,53.90
2018-08-31T15:07:55.309Z,55.00
2018-08-31T15:10:25.857Z,56.20
2018-08-31T15:12:58.198Z,56.80
2018-08-31T15:15:28.383Z,56.30
2018-08-31T15:18:01.948Z,56.30
2018-08-31T15:20:31.487Z,56.50
2018-08-31T15:57:20.640Z,57.50
2018-08-31T15:59:57.389Z,57.70
2018-08-31T16:02:31.151Z,57.50
2018-08-31T16:05:27.589Z,58.20
2018-08-31T16:07:56.191Z,58.20
2018-08-31T16:10:24.566Z,58.20
2018-08-31T16:12:53.071Z,58.40
2018-08-31T16:15:21.877Z,58.90
2018-08-31T16:17:50.458Z,58.40
2018-08-31T16:20:18.853Z,58.90
2018-08-31T16:22:47.393Z,59.20
2018-08-31T16:25:21.803Z,58.90
2018-08-31T16:27:50.359Z,59.00
2018-08-31T16:30:19.650Z,58.60
2018-08-31T16:32:48.087Z,58.30
2018-08-31T16:35:16.562Z,58.30
2018-08-31T16:37:44.972Z,58.20
2018-08-31T16:40:13.457Z,59.00
2018-08-31T16:42:42.570Z,58.80
2018-08-31T16:45:11.131Z,58.90
2018-08-31T16:47:41.308Z,59.20
2018-08-31T16:50:11.305Z,58.80
2018-08-31T16:52:40.081Z,58.50
2018-08-31T16:55:09.483Z,58.40
2018-08-31T16:57:39.838Z,58.40
2018-08-31T17:00:08.647Z,58.10
2018-08-31T17:02:37.048Z,58.30
2018-08-31T17:05:05.438Z,58.70
2018-08-31T17:07:34.235Z,58.60
2018-08-31T17:10:02.722Z,58.70
2018-08-31T17:12:31.224Z,58.60
2018-08-31T17:14:59.567Z,59.00
2018-08-31T17:17:28.098Z,60.20
2018-08-31T17:19:56.484Z,59.20
2018-08-31T17:22:25.006Z,59.40
2018-08-31T17:24:55.450Z,59.30
2018-08-31T17:27:29.295Z,59.20
2018-08-31T17:30:02.315Z,58.00
2018-08-31T17:32:36.962Z,58.20
2018-08-31T17:35:11.108Z,58.90
2018-08-31T17:37:39.776Z,59.40
2018-08-31T17:40:08.228Z,59.00
2018-08-31T17:42:39.651Z,59.30
2018-08-31T17:45:10.476Z,58.90
2018-08-31T17:47:40.189Z,58.80
2018-08-31T17:50:09.832Z,59.00
2018-08-31T17:52:38.425Z,59.00
2018-08-31T17:55:07.432Z,58.80
2018-08-31T17:57:36.068Z,58.90
2018-08-31T18:00:04.935Z,59.40
2018-08-31T18:02:33.402Z,59.30
2018-08-31T18:05:01.951Z,59.20
2018-08-31T18:07:31.683Z,59.40
2018-08-31T18:10:01.128Z,59.80
2018-08-31T18:12:30.507Z,59.70
2018-08-31T18:14:59.092Z,60.00
2018-08-31T18:17:27.749Z,60.10
2018-08-31T18:19:57.498Z,60.20
2018-08-31T18:22:25.889Z,59.90
2018-08-31T18:24:54.340Z,60.10
2018-08-31T18:27:22.932Z,60.50
2018-08-31T18:29:51.780Z,60.90
2018-08-31T18:32:21.341Z,61.10
2018-08-31T18:34:54.180Z,61.10
2018-08-31T18:37:22.913Z,61.40
2018-08-31T18:39:51.864Z,61.60
2018-08-31T18:42:20.719Z,61.80
2018-08-31T18:44:56.203Z,61.90
2018-08-31T18:47:25.359Z,62.30
2018-08-31T18:49:54.278Z,62.20
2018-08-31T18:52:25.441Z,62.40
2018-08-31T18:54:57.477Z,62.30
2018-08-31T18:57:30.653Z,62.30
2018-08-31T19:06:10.366Z,62.30
2018-08-31T19:08:42.486Z,62.50
2018-08-31T19:11:19.341Z,62.50
2018-08-31T19:13:49.753Z,62.60
2018-08-31T19:18:59.299Z,62.40
2018-08-31T19:21:32.260Z,63.00
2018-08-31T19:24:02.387Z,63.60
2018-08-31T19:26:36.665Z,63.60
2018-08-31T19:29:07.901Z,64.00
2018-08-31T19:31:39.134Z,64.30
2018-08-31T19:34:13.033Z,64.40
2018-08-31T19:39:53.549Z,63.90
2018-08-31T19:42:28.973Z,64.20
2018-08-31T19:48:27.727Z,65.10
2018-08-31T19:50:57.589Z,65.20
2018-08-31T19:53:33.880Z,65.40
2018-08-31T19:56:03.265Z,65.30
2018-08-31T19:58:32.646Z,65.30
2018-08-31T20:01:01.350Z,65.10
2018-08-31T20:03:30.780Z,65.20
2018-08-31T20:06:00.302Z,66.40
2018-08-31T20:08:28.810Z,66.60
2018-08-31T20:10:57.372Z,66.40
2018-08-31T20:13:25.887Z,66.00
2018-08-31T20:15:54.697Z,65.20
2018-08-31T20:18:24.545Z,65.60
2018-08-31T20:20:53.808Z,66.60
2018-08-31T20:23:22.502Z,67.80
2018-08-31T20:25:51.099Z,67.90
2018-08-31T20:28:19.817Z,67.50
2018-08-31T20:30:48.564Z,66.90
2018-08-31T20:33:17.903Z,66.50
2018-08-31T20:35:46.552Z,65.90
2018-08-31T20:38:15.097Z,65.50
2018-08-31T20:40:44.471Z,65.30
2018-08-31T20:43:13.094Z,65.00
2018-08-31T20:45:41.811Z,64.90
2018-08-31T20:48:10.658Z,65.20
2018-08-31T20:50:40.452Z,65.00
2018-08-31T20:53:09.182Z,65.00
2018-08-31T20:55:37.784Z,64.70
2018-08-31T20:58:06.492Z,64.90
2018-08-31T21:00:34.937Z,64.80
2018-08-31T21:03:03.442Z,64.90
2018-08-31T21:05:34.100Z,64.70
2018-08-31T21:08:02.972Z,65.40
2018-08-31T21:10:31.753Z,64.90
2018-08-31T21:13:00.332Z,65.20
2018-08-31T21:15:29.130Z,65.10
2018-08-31T21:17:57.624Z,65.10
2018-08-31T21:20:26.774Z,65.50
2018-08-31T21:22:55.339Z,65.40
2018-08-31T21:25:28.674Z,65.70
2018-08-31T21:27:57.327Z,65.40
2018-08-31T21:30:26.099Z,65.50
2018-08-31T21:32:54.809Z,65.90
2018-08-31T21:35:23.482Z,65.80
2018-08-31T21:37:52.169Z,65.90
2018-08-31T21:40:20.810Z,65.50
2018-08-31T21:42:51.140Z,65.50
2018-08-31T21:45:19.732Z,65.50
2018-08-31T21:47:48.107Z,65.90
2018-08-31T21:50:16.687Z,65.80
2018-08-31T21:52:46.330Z,65.70
2018-08-31T21:55:14.875Z,65.90
2018-08-31T21:57:43.442Z,66.20
2018-08-31T22:00:15.303Z,66.00
2018-08-31T22:02:43.939Z,66.00
2018-08-31T22:05:12.518Z,66.40
2018-08-31T22:07:41.011Z,66.60
2018-08-31T22:10:09.580Z,66.50
2018-08-31T22:12:38.323Z,66.50
2018-08-31T22:15:11.695Z,66.40
2018-08-31T22:17:40.248Z,67.20
2018-08-31T22:20:08.863Z,66.70
2018-08-31T22:22:37.621Z,66.50
2018-08-31T22:25:06.585Z,66.40
2018-08-31T22:27:36.796Z,66.30
2018-08-31T22:30:05.751Z,66.50
2018-08-31T22:32:34.475Z,66.70
2018-08-31T22:35:03.142Z,66.80
2018-08-31T22:37:31.740Z,66.80
2018-08-31T22:40:01.229Z,67.20
2018-08-31T22:42:29.908Z,66.70
2018-08-31T22:44:58.408Z,67.20
2018-08-31T22:47:27.245Z,67.00
2018-08-31T22:49:55.913Z,66.90
2018-08-31T22:52:24.529Z,67.00
2018-08-31T22:54:53.171Z,67.60
2018-08-31T22:57:21.859Z,67.10
2018-08-31T22:59:50.339Z,66.90
2018-08-31T23:02:18.970Z,67.00
2018-08-31T23:04:47.486Z,67.40
2018-08-31T23:07:21.366Z,68.00
2018-08-31T23:09:49.942Z,67.50
2018-08-31T23:12:18.574Z,68.10
2018-08-31T23:14:47.196Z,68.70
2018-08-31T23:17:15.667Z,68.70
2018-08-31T23:19:44.378Z,68.30
2018-08-31T23:22:12.943Z,69.40
2018-08-31T23:24:41.533Z,68.50
2018-08-31T23:27:09.867Z,69.60
2018-08-31T23:29:38.653Z,68.70
2018-08-31T23:32:07.249Z,68.70
2018-08-31T23:34:35.878Z,68.30
2018-08-31T23:37:04.551Z,69.80
2018-08-31T23:39:33.213Z,70.10
2018-08-31T23:42:02.844Z,71.00
2018-08-31T23:44:31.536Z,70.10
2018-08-31T23:47:00.311Z,70.00
2018-08-31T23:49:28.901Z,70.10
2018-08-31T23:51:57.521Z,70.20
2018-08-31T23:54:26.048Z,70.00
2018-08-31T23:56:54.799Z,69.80
2018-08-31T23:59:23.247Z,73.70
